sensor_id;sensor_type;location;lat;lon;timestamp;pressure;altitude;pressure_sealevel;temperature;humidity
15634;BME280;14654;48.898;8.308;2022-11-20T00:01:30;99836.69;;;5.71;100.00
15634;BME280;14654;48.898;8.308;2022-11-20T00:03:56;99832.41;;;5.73;100.00
15634;BME280;14654;48.898;8.308;2022-11-20T00:06:23;99833.28;;;5.77;100.00
15634;BME280;14654;48.898;8.308;2022-11-20T00:08:48;99836.72;;;5.80;100.00
15634;BME280;14654;48.898;8.308;2022-11-20T00:11:16;99841.88;;;5.85;100.00
15634;BME280;14654;48.898;8.308;2022-11-20T00:13:43;99841.88;;;5.90;100.00
15634;BME280;14654;48.898;8.308;2022-11-20T00:16:10;99839.34;;;5.96;100.00
15634;BME280;14654;48.898;8.308;2022-11-20T00:18:36;99847.09;;;6.04;100.00
15634;BME280;14654;48.898;8.308;2022-11-20T00:21:07;99842.81;;;6.12;100.00
15634;BME280;14654;48.898;8.308;2022-11-20T00:23:33;99845.41;;;6.20;100.00
15634;BME280;14654;48.898;8.308;2022-11-20T00:26:06;99846.28;;;6.31;100.00
15634;BME280;14654;48.898;8.308;2022-11-20T00:28:32;99845.44;;;6.37;100.00
15634;BME280;14654;48.898;8.308;2022-11-20T00:31:16;99842.03;;;6.44;100.00
15634;BME280;14654;48.898;8.308;2022-11-20T00:33:42;99840.31;;;6.49;100.00
15634;BME280;14654;48.898;8.308;2022-11-20T00:36:19;99848.88;;;6.54;100.00
15634;BME280;14654;48.898;8.308;2022-11-20T00:38:45;99842.88;;;6.55;100.00
15634;BME280;14654;48.898;8.308;2022-11-20T00:41:14;99843.72;;;6.62;100.00
15634;BME280;14654;48.898;8.308;2022-11-20T00:43:40;99852.28;;;6.66;100.00
15634;BME280;14654;48.898;8.308;2022-11-20T00:46:12;99844.59;;;6.67;100.00
15634;BME280;14654;48.898;8.308;2022-11-20T00:48:38;99843.72;;;6.70;100.00
15634;BME280;14654;48.898;8.308;2022-11-20T00:51:04;99844.59;;;6.69;100.00
15634;BME280;14654;48.898;8.308;2022-11-20T00:53:29;99843.75;;;6.71;100.00
15634;BME280;14654;48.898;8.308;2022-11-20T00:56:05;99845.44;;;6.76;100.00
15634;BME280;14654;48.898;8.308;2022-11-20T00:58:33;99842.88;;;6.76;100.00
15634;BME280;14654;48.898;8.308;2022-11-20T01:01:00;99844.59;;;6.75;100.00
15634;BME280;14654;48.898;8.308;2022-11-20T01:03:26;99844.59;;;6.75;100.00
15634;BME280;14654;48.898;8.308;2022-11-20T01:05:51;99840.31;;;6.77;100.00
15634;BME280;14654;48.898;8.308;2022-11-20T01:08:16;99838.59;;;6.78;100.00
15634;BME280;14654;48.898;8.308;2022-11-20T01:10:41;99843.72;;;6.78;100.00
15634;BME280;14654;48.898;8.308;2022-11-20T01:13:07;99842.88;;;6.79;100.00
15634;BME280;14654;48.898;8.308;2022-11-20T01:15:51;99842.03;;;6.80;100.00
15634;BME280;14654;48.898;8.308;2022-11-20T01:18:16;99834.28;;;6.81;100.00
15634;BME280;14654;48.898;8.308;2022-11-20T01:20:41;99835.16;;;6.82;100.00
15634;BME280;14654;48.898;8.308;2022-11-20T01:23:07;99831.72;;;6.81;100.00
15634;BME280;14654;48.898;8.308;2022-11-20T01:25:34;99844.59;;;6.83;100.00
15634;BME280;14654;48.898;8.308;2022-11-20T01:27:59;99848.88;;;6.84;100.00
15634;BME280;14654;48.898;8.308;2022-11-20T01:30:25;99848.03;;;6.85;100.00
15634;BME280;14654;48.898;8.308;2022-11-20T01:32:50;99844.59;;;6.86;100.00
15634;BME280;14654;48.898;8.308;2022-11-20T01:35:16;99849.75;;;6.86;100.00
15634;BME280;14654;48.898;8.308;2022-11-20T01:37:41;99850.59;;;6.86;100.00
15634;BME280;14654;48.898;8.308;2022-11-20T01:40:07;99842.88;;;6.88;100.00
15634;BME280;14654;48.898;8.308;2022-11-20T01:42:32;99840.31;;;6.88;100.00
15634;BME280;14654;48.898;8.308;2022-11-20T01:45:45;99842.00;;;6.84;100.00
15634;BME280;14654;48.898;8.308;2022-11-20T01:48:18;99843.72;;;6.81;100.00
15634;BME280;14654;48.898;8.308;2022-11-20T01:50:44;99836.03;;;6.76;100.00
15634;BME280;14654;48.898;8.308;2022-11-20T01:53:13;99831.72;;;6.74;100.00
15634;BME280;14654;48.898;8.308;2022-11-20T01:55:45;99836.88;;;6.69;100.00
15634;BME280;14654;48.898;8.308;2022-11-20T01:58:12;99828.31;;;6.62;100.00
15634;BME280;14654;48.898;8.308;2022-11-20T02:00:37;99827.44;;;6.55;100.00
15634;BME280;14654;48.898;8.308;2022-11-20T02:03:07;99833.44;;;6.50;100.00
15634;BME280;14654;48.898;8.308;2022-11-20T02:05:38;99830.88;;;6.44;100.00
15634;BME280;14654;48.898;8.308;2022-11-20T02:08:05;99836.88;;;6.46;100.00
15634;BME280;14654;48.898;8.308;2022-11-20T02:10:32;99840.31;;;6.46;100.00
15634;BME280;14654;48.898;8.308;2022-11-20T02:12:58;99831.75;;;6.44;100.00
15634;BME280;14654;48.898;8.308;2022-11-20T02:15:42;99837.75;;;6.42;100.00
15634;BME280;14654;48.898;8.308;2022-11-20T02:18:09;99838.59;;;6.37;100.00
15634;BME280;14654;48.898;8.308;2022-11-20T02:20:35;99837.72;;;6.40;100.00
15634;BME280;14654;48.898;8.308;2022-11-20T02:25:42;99844.59;;;6.43;100.00
15634;BME280;14654;48.898;8.308;2022-11-20T02:28:09;99832.59;;;6.48;100.00
15634;BME280;14654;48.898;8.308;2022-11-20T02:30:34;99842.00;;;6.53;100.00
15634;BME280;14654;48.898;8.308;2022-11-20T02:33:00;99837.75;;;6.57;100.00
15634;BME280;14654;48.898;8.308;2022-11-20T02:37:53;99842.03;;;6.64;100.00
15634;BME280;14654;48.898;8.308;2022-11-20T02:40:20;99842.00;;;6.66;100.00
15634;BME280;14654;48.898;8.308;2022-11-20T02:42:45;99848.03;;;6.69;100.00
15634;BME280;14654;48.898;8.308;2022-11-20T02:45:11;99844.59;;;6.72;100.00
15634;BME280;14654;48.898;8.308;2022-11-20T02:47:37;99833.44;;;6.75;100.00
15634;BME280;14654;48.898;8.308;2022-11-20T02:50:03;99852.31;;;6.77;100.00
15634;BME280;14654;48.898;8.308;2022-11-20T02:52:29;99836.03;;;6.79;100.00
15634;BME280;14654;48.898;8.308;2022-11-20T02:54:55;99840.31;;;6.82;100.00
15634;BME280;14654;48.898;8.308;2022-11-20T02:57:20;99838.59;;;6.81;100.00
15634;BME280;14654;48.898;8.308;2022-11-20T02:59:46;99841.16;;;6.82;100.00
15634;BME280;14654;48.898;8.308;2022-11-20T03:02:11;99839.44;;;6.84;100.00
15634;BME280;14654;48.898;8.308;2022-11-20T03:04:36;99837.75;;;6.85;100.00
15634;BME280;14654;48.898;8.308;2022-11-20T03:07:02;99838.59;;;6.87;100.00
15634;BME280;14654;48.898;8.308;2022-11-20T03:09:27;99842.88;;;6.88;100.00
15634;BME280;14654;48.898;8.308;2022-11-20T03:11:53;99832.59;;;6.85;100.00
15634;BME280;14654;48.898;8.308;2022-11-20T03:14:18;99836.88;;;6.86;100.00
15634;BME280;14654;48.898;8.308;2022-11-20T03:16:43;99836.03;;;6.87;100.00
15634;BME280;14654;48.898;8.308;2022-11-20T03:19:09;99834.31;;;6.86;100.00
15634;BME280;14654;48.898;8.308;2022-11-20T03:21:34;99837.72;;;6.86;100.00
15634;BME280;14654;48.898;8.308;2022-11-20T03:24:00;99837.72;;;6.86;100.00
15634;BME280;14654;48.898;8.308;2022-11-20T03:26:26;99847.16;;;6.86;100.00
15634;BME280;14654;48.898;8.308;2022-11-20T03:28:57;99840.31;;;6.88;100.00
15634;BME280;14654;48.898;8.308;2022-11-20T03:31:31;99840.31;;;6.90;100.00
15634;BME280;14654;48.898;8.308;2022-11-20T03:33:58;99836.84;;;6.89;100.00
15634;BME280;14654;48.898;8.308;2022-11-20T03:36:24;99834.28;;;6.89;100.00
15634;BME280;14654;48.898;8.308;2022-11-20T03:38:49;99834.28;;;6.89;100.00
15634;BME280;14654;48.898;8.308;2022-11-20T03:41:19;99834.28;;;6.89;100.00
15634;BME280;14654;48.898;8.308;2022-11-20T03:43:49;99836.00;;;6.89;100.00
15634;BME280;14654;48.898;8.308;2022-11-20T03:46:15;99830.03;;;6.88;100.00
15634;BME280;14654;48.898;8.308;2022-11-20T03:48:41;99830.00;;;6.90;100.00
15634;BME280;14654;48.898;8.308;2022-11-20T03:51:21;99837.72;;;6.90;100.00
15634;BME280;14654;48.898;8.308;2022-11-20T03:53:48;99824.00;;;6.89;100.00
15634;BME280;14654;48.898;8.308;2022-11-20T03:56:16;99824.88;;;6.90;100.00
15634;BME280;14654;48.898;8.308;2022-11-20T03:58:41;99831.72;;;6.91;100.00
15634;BME280;14654;48.898;8.308;2022-11-20T04:01:12;99827.44;;;6.91;100.00
15634;BME280;14654;48.898;8.308;2022-11-20T04:03:39;99826.59;;;6.91;100.00
15634;BME280;14654;48.898;8.308;2022-11-20T04:06:06;99833.44;;;6.92;100.00
15634;BME280;14654;48.898;8.308;2022-11-20T04:08:32;99824.00;;;6.91;100.00
15634;BME280;14654;48.898;8.308;2022-11-20T04:11:08;99829.13;;;6.92;100.00
15634;BME280;14654;48.898;8.308;2022-11-20T04:13:34;99825.72;;;6.90;100.00
15634;BME280;14654;48.898;8.308;2022-11-20T04:15:59;99828.28;;;6.90;100.00
15634;BME280;14654;48.898;8.308;2022-11-20T04:18:24;99825.72;;;6.90;100.00
15634;BME280;14654;48.898;8.308;2022-11-20T04:20:50;99826.59;;;6.91;100.00
15634;BME280;14654;48.898;8.308;2022-11-20T04:23:15;99827.44;;;6.91;100.00
15634;BME280;14654;48.898;8.308;2022-11-20T04:25:40;99824.00;;;6.91;100.00
15634;BME280;14654;48.898;8.308;2022-11-20T04:28:06;99817.13;;;6.91;100.00
15634;BME280;14654;48.898;8.308;2022-11-20T04:30:31;99815.44;;;6.92;100.00
15634;BME280;14654;48.898;8.308;2022-11-20T04:32:56;99813.72;;;6.92;100.00
15634;BME280;14654;48.898;8.308;2022-11-20T04:35:21;99816.28;;;6.92;100.00
15634;BME280;14654;48.898;8.308;2022-11-20T04:37:47;99814.56;;;6.93;100.00
15634;BME280;14654;48.898;8.308;2022-11-20T04:40:12;99816.28;;;6.94;100.00
15634;BME280;14654;48.898;8.308;2022-11-20T04:42:37;99812.84;;;6.93;100.00
15634;BME280;14654;48.898;8.308;2022-11-20T04:45:03;99814.56;;;6.91;100.00
15634;BME280;14654;48.898;8.308;2022-11-20T04:47:28;99812.00;;;6.90;100.00
15634;BME280;14654;48.898;8.308;2022-11-20T04:49:54;99818.88;;;6.91;100.00
15634;BME280;14654;48.898;8.308;2022-11-20T04:52:19;99812.00;;;6.90;100.00
15634;BME280;14654;48.898;8.308;2022-11-20T04:54:44;99813.72;;;6.92;100.00
15634;BME280;14654;48.898;8.308;2022-11-20T04:57:10;99812.84;;;6.90;100.00
15634;BME280;14654;48.898;8.308;2022-11-20T04:59:35;99815.41;;;6.90;100.00
15634;BME280;14654;48.898;8.308;2022-11-20T05:02:00;99814.56;;;6.90;100.00
15634;BME280;14654;48.898;8.308;2022-11-20T05:04:25;99808.56;;;6.89;100.00
15634;BME280;14654;48.898;8.308;2022-11-20T05:06:51;99806.84;;;6.90;100.00
15634;BME280;14654;48.898;8.308;2022-11-20T05:09:17;99809.44;;;6.90;100.00
15634;BME280;14654;48.898;8.308;2022-11-20T05:11:42;99804.28;;;6.91;100.00
15634;BME280;14654;48.898;8.308;2022-11-20T05:14:08;99805.13;;;6.90;100.00
15634;BME280;14654;48.898;8.308;2022-11-20T05:16:34;99799.16;;;6.88;100.00
15634;BME280;14654;48.898;8.308;2022-11-20T05:19:00;99798.28;;;6.89;100.00
15634;BME280;14654;48.898;8.308;2022-11-20T05:21:26;99801.72;;;6.88;100.00
15634;BME280;14654;48.898;8.308;2022-11-20T05:23:52;99799.13;;;6.86;100.00
15634;BME280;14654;48.898;8.308;2022-11-20T05:26:20;99794.00;;;6.86;100.00
15634;BME280;14654;48.898;8.308;2022-11-20T05:28:46;99796.59;;;6.88;100.00
15634;BME280;14654;48.898;8.308;2022-11-20T05:31:17;99801.72;;;6.90;100.00
15634;BME280;14654;48.898;8.308;2022-11-20T05:33:44;99793.13;;;6.89;100.00
15634;BME280;14654;48.898;8.308;2022-11-20T05:36:11;99791.44;;;6.88;100.00
15634;BME280;14654;48.898;8.308;2022-11-20T05:38:37;99802.56;;;6.89;100.00
15634;BME280;14654;48.898;8.308;2022-11-20T05:41:07;99796.59;;;6.88;100.00
15634;BME280;14654;48.898;8.308;2022-11-20T05:43:34;99794.00;;;6.88;100.00
15634;BME280;14654;48.898;8.308;2022-11-20T05:46:00;99792.25;;;6.90;100.00
15634;BME280;14654;48.898;8.308;2022-11-20T05:48:25;99790.56;;;6.89;100.00
15634;BME280;14654;48.898;8.308;2022-11-20T05:50:51;99790.56;;;6.88;100.00
15634;BME280;14654;48.898;8.308;2022-11-20T05:53:16;99786.28;;;6.90;100.00
15634;BME280;14654;48.898;8.308;2022-11-20T05:55:41;99792.28;;;6.89;100.00
15634;BME280;14654;48.898;8.308;2022-11-20T05:58:07;99793.13;;;6.88;100.00
15634;BME280;14654;48.898;8.308;2022-11-20T06:00:32;99792.25;;;6.90;100.00
15634;BME280;14654;48.898;8.308;2022-11-20T06:02:57;99788.88;;;6.88;100.00
15634;BME280;14654;48.898;8.308;2022-11-20T06:05:22;99782.84;;;6.89;100.00
15634;BME280;14654;48.898;8.308;2022-11-20T06:07:48;99788.00;;;6.88;100.00
15634;BME280;14654;48.898;8.308;2022-11-20T06:10:13;99784.56;;;6.90;100.00
15634;BME280;14654;48.898;8.308;2022-11-20T06:12:38;99786.28;;;6.90;100.00
15634;BME280;14654;48.898;8.308;2022-11-20T06:15:05;99786.28;;;6.88;100.00
15634;BME280;14654;48.898;8.308;2022-11-20T06:17:30;99792.25;;;6.90;100.00
15634;BME280;14654;48.898;8.308;2022-11-20T06:19:55;99798.28;;;6.92;100.00
15634;BME280;14654;48.898;8.308;2022-11-20T06:22:21;99792.28;;;6.92;100.00
15634;BME280;14654;48.898;8.308;2022-11-20T06:24:46;99794.84;;;6.92;100.00
15634;BME280;14654;48.898;8.308;2022-11-20T06:27:11;99790.56;;;6.94;100.00
15634;BME280;14654;48.898;8.308;2022-11-20T06:29:37;99800.84;;;6.94;100.00
15634;BME280;14654;48.898;8.308;2022-11-20T06:32:02;99801.72;;;6.93;100.00
15634;BME280;14654;48.898;8.308;2022-11-20T06:34:27;99799.16;;;6.93;100.00
15634;BME280;14654;48.898;8.308;2022-11-20T06:36:53;99796.56;;;6.91;100.00
15634;BME280;14654;48.898;8.308;2022-11-20T06:39:18;99791.41;;;6.91;100.00
15634;BME280;14654;48.898;8.308;2022-11-20T06:41:43;99800.84;;;6.91;100.00
15634;BME280;14654;48.898;8.308;2022-11-20T06:44:09;99805.97;;;6.89;100.00
15634;BME280;14654;48.898;8.308;2022-11-20T06:46:34;99800.00;;;6.85;100.00
15634;BME280;14654;48.898;8.308;2022-11-20T06:48:59;99810.28;;;6.85;100.00
15634;BME280;14654;48.898;8.308;2022-11-20T06:51:25;99815.44;;;6.89;100.00
15634;BME280;14654;48.898;8.308;2022-11-20T06:53:50;99807.72;;;6.85;100.00
15634;BME280;14654;48.898;8.308;2022-11-20T06:56:15;99807.72;;;6.84;100.00
15634;BME280;14654;48.898;8.308;2022-11-20T06:58:41;99816.28;;;6.84;100.00
15634;BME280;14654;48.898;8.308;2022-11-20T07:01:10;99816.31;;;6.83;100.00
15634;BME280;14654;48.898;8.308;2022-11-20T07:03:36;99820.59;;;6.84;100.00
15634;BME280;14654;48.898;8.308;2022-11-20T07:06:03;99822.31;;;6.88;100.00
15634;BME280;14654;48.898;8.308;2022-11-20T07:08:28;99817.13;;;6.91;100.00
15634;BME280;14654;48.898;8.308;2022-11-20T07:10:57;99826.59;;;6.91;100.00
15634;BME280;14654;48.898;8.308;2022-11-20T07:13:23;99830.00;;;6.90;100.00
15634;BME280;14654;48.898;8.308;2022-11-20T07:15:48;99827.44;;;6.90;100.00
15634;BME280;14654;48.898;8.308;2022-11-20T07:18:14;99829.13;;;6.89;100.00
15634;BME280;14654;48.898;8.308;2022-11-20T07:20:39;99830.03;;;6.88;100.00
15634;BME280;14654;48.898;8.308;2022-11-20T07:23:04;99821.44;;;6.86;100.00
15634;BME280;14654;48.898;8.308;2022-11-20T07:25:30;99836.00;;;6.85;100.00
15634;BME280;14654;48.898;8.308;2022-11-20T07:27:59;99828.28;;;6.89;100.00
15634;BME280;14654;48.898;8.308;2022-11-20T07:30:27;99833.44;;;6.92;100.00
15634;BME280;14654;48.898;8.308;2022-11-20T07:32:54;99837.72;;;6.93;100.00
15634;BME280;14654;48.898;8.308;2022-11-20T07:35:20;99837.72;;;6.93;100.00
15634;BME280;14654;48.898;8.308;2022-11-20T07:37:46;99844.56;;;6.97;100.00
15634;BME280;14654;48.898;8.308;2022-11-20T07:40:12;99836.00;;;6.99;100.00
15634;BME280;14654;48.898;8.308;2022-11-20T07:42:38;99842.00;;;7.01;100.00
15634;BME280;14654;48.898;8.308;2022-11-20T07:45:07;99830.00;;;7.05;100.00
15634;BME280;14654;48.898;8.308;2022-11-20T07:47:36;99843.72;;;7.07;100.00
15634;BME280;14654;48.898;8.308;2022-11-20T07:50:01;99834.25;;;7.05;100.00
15634;BME280;14654;48.898;8.308;2022-11-20T07:52:27;99841.13;;;7.06;100.00
15634;BME280;14654;48.898;8.308;2022-11-20T07:54:52;99844.56;;;7.08;100.00
15634;BME280;14654;48.898;8.308;2022-11-20T07:57:17;99844.56;;;7.11;100.00
15634;BME280;14654;48.898;8.308;2022-11-20T07:59:43;99847.97;;;7.10;100.00
15634;BME280;14654;48.898;8.308;2022-11-20T08:02:10;99852.28;;;7.14;100.00
15634;BME280;14654;48.898;8.308;2022-11-20T08:04:36;99853.97;;;7.16;100.00
15634;BME280;14654;48.898;8.308;2022-11-20T08:07:01;99859.13;;;7.18;100.00
15634;BME280;14654;48.898;8.308;2022-11-20T08:09:27;99854.84;;;7.17;100.00
15634;BME280;14654;48.898;8.308;2022-11-20T08:11:53;99863.41;;;7.19;100.00
15634;BME280;14654;48.898;8.308;2022-11-20T08:14:45;99865.97;;;7.21;100.00
15634;BME280;14654;48.898;8.308;2022-11-20T08:17:10;99866.81;;;7.21;100.00
15634;BME280;14654;48.898;8.308;2022-11-20T08:19:36;99871.13;;;7.22;100.00
15634;BME280;14654;48.898;8.308;2022-11-20T08:22:01;99865.97;;;7.22;100.00
15634;BME280;14654;48.898;8.308;2022-11-20T08:24:27;99878.84;;;7.22;100.00
15634;BME280;14654;48.898;8.308;2022-11-20T08:26:52;99874.56;;;7.23;100.00
15634;BME280;14654;48.898;8.308;2022-11-20T08:29:18;99881.41;;;7.25;100.00
15634;BME280;14654;48.898;8.308;2022-11-20T08:31:43;99879.69;;;7.29;100.00
15634;BME280;14654;48.898;8.308;2022-11-20T08:34:09;99877.97;;;7.31;100.00
15634;BME280;14654;48.898;8.308;2022-11-20T08:36:34;99884.81;;;7.33;100.00
15634;BME280;14654;48.898;8.308;2022-11-20T08:39:00;99889.09;;;7.35;100.00
15634;BME280;14654;48.898;8.308;2022-11-20T08:41:26;99887.38;;;7.37;100.00
15634;BME280;14654;48.898;8.308;2022-11-20T08:43:57;99893.41;;;7.37;100.00
15634;BME280;14654;48.898;8.308;2022-11-20T08:46:24;99895.97;;;7.36;100.00
15634;BME280;14654;48.898;8.308;2022-11-20T08:48:51;99884.81;;;7.35;100.00
15634;BME280;14654;48.898;8.308;2022-11-20T08:51:17;99892.56;;;7.35;100.00
15634;BME280;14654;48.898;8.308;2022-11-20T08:53:43;99891.69;;;7.35;100.00
15634;BME280;14654;48.898;8.308;2022-11-20T08:56:08;99897.69;;;7.37;100.00
15634;BME280;14654;48.898;8.308;2022-11-20T08:58:35;99901.13;;;7.39;100.00
15634;BME280;14654;48.898;8.308;2022-11-20T09:01:01;99899.41;;;7.39;100.00
15634;BME280;14654;48.898;8.308;2022-11-20T09:03:26;99903.69;;;7.39;100.00
15634;BME280;14654;48.898;8.308;2022-11-20T09:05:59;99908.84;;;7.36;100.00
15634;BME280;14654;48.898;8.308;2022-11-20T09:08:26;99914.00;;;7.36;100.00
15634;BME280;14654;48.898;8.308;2022-11-20T09:10:52;99910.56;;;7.35;100.00
15634;BME280;14654;48.898;8.308;2022-11-20T09:13:19;99905.44;;;7.30;100.00
15634;BME280;14654;48.898;8.308;2022-11-20T09:15:44;99921.72;;;7.31;100.00
15634;BME280;14654;48.898;8.308;2022-11-20T09:18:10;99932.03;;;7.31;100.00
15634;BME280;14654;48.898;8.308;2022-11-20T09:20:36;99924.31;;;7.34;100.00
15634;BME280;14654;48.898;8.308;2022-11-20T09:23:02;99924.28;;;7.36;100.00
15634;BME280;14654;48.898;8.308;2022-11-20T09:25:27;99926.00;;;7.37;100.00
15634;BME280;14654;48.898;8.308;2022-11-20T09:27:56;99928.59;;;7.38;100.00
15634;BME280;14654;48.898;8.308;2022-11-20T09:30:22;99926.88;;;7.45;100.00
15634;BME280;14654;48.898;8.308;2022-11-20T09:32:47;99931.97;;;7.54;100.00
15634;BME280;14654;48.898;8.308;2022-11-20T09:35:13;99937.97;;;7.64;100.00
15634;BME280;14654;48.898;8.308;2022-11-20T09:37:39;99925.94;;;7.63;100.00
15634;BME280;14654;48.898;8.308;2022-11-20T09:40:06;99928.53;;;7.61;100.00
15634;BME280;14654;48.898;8.308;2022-11-20T09:42:44;99931.97;;;7.62;100.00
15634;BME280;14654;48.898;8.308;2022-11-20T09:50:50;99937.06;;;7.74;100.00
15634;BME280;14654;48.898;8.308;2022-11-20T09:55:51;99942.19;;;7.82;100.00
15634;BME280;14654;48.898;8.308;2022-11-20T09:58:38;99936.16;;;7.91;100.00
15634;BME280;14654;48.898;8.308;2022-11-20T10:01:12;99936.13;;;7.99;100.00
15634;BME280;14654;48.898;8.308;2022-11-20T10:03:58;99935.28;;;8.03;100.00
15634;BME280;14654;48.898;8.308;2022-11-20T10:06:48;99940.44;;;8.01;100.00
15634;BME280;14654;48.898;8.308;2022-11-20T10:09:37;99936.13;;;7.99;100.00
15634;BME280;14654;48.898;8.308;2022-11-20T10:12:16;99937.88;;;8.01;100.00
15634;BME280;14654;48.898;8.308;2022-11-20T10:17:38;99936.13;;;8.08;100.00
15634;BME280;14654;48.898;8.308;2022-11-20T10:25:19;99937.59;;;8.54;100.00
15634;BME280;14654;48.898;8.308;2022-11-20T10:30:26;99930.47;;;8.92;100.00
15634;BME280;14654;48.898;8.308;2022-11-20T10:32:54;99927.75;;;9.07;100.00
15634;BME280;14654;48.898;8.308;2022-11-20T10:35:39;99919.09;;;9.14;100.00
15634;BME280;14654;48.898;8.308;2022-11-20T10:38:31;99913.06;;;9.17;100.00
15634;BME280;14654;48.898;8.308;2022-11-20T10:41:01;99908.72;;;9.19;100.00
15634;BME280;14654;48.898;8.308;2022-11-20T10:43:47;99900.91;;;9.27;100.00
15634;BME280;14654;48.898;8.308;2022-11-20T10:46:22;99904.22;;;9.38;100.00
15634;BME280;14654;48.898;8.308;2022-11-20T10:48:49;99902.34;;;9.54;100.00
15634;BME280;14654;48.898;8.308;2022-11-20T10:51:27;99895.19;;;9.78;100.00
15634;BME280;14654;48.898;8.308;2022-11-20T10:57:10;99889.84;;;9.94;100.00
15634;BME280;14654;48.898;8.308;2022-11-20T10:59:46;99885.22;;;10.16;100.00
15634;BME280;14654;48.898;8.308;2022-11-20T11:02:19;99878.97;;;10.31;100.00
15634;BME280;14654;48.898;8.308;2022-11-20T11:04:52;99871.09;;;10.43;100.00
15634;BME280;14654;48.898;8.308;2022-11-20T11:07:27;99871.78;;;10.55;100.00
15634;BME280;14654;48.898;8.308;2022-11-20T11:09:56;99862.97;;;10.65;100.00
15634;BME280;14654;48.898;8.308;2022-11-20T11:12:24;99865.28;;;10.82;100.00
15634;BME280;14654;48.898;8.308;2022-11-20T11:14:52;99868.69;;;10.84;100.00
15634;BME280;14654;48.898;8.308;2022-11-20T11:22:53;99835.91;;;10.83;100.00
15634;BME280;14654;48.898;8.308;2022-11-20T11:25:33;99843.22;;;10.59;100.00
15634;BME280;14654;48.898;8.308;2022-11-20T11:28:22;99836.63;;;10.36;100.00
15634;BME280;14654;48.898;8.308;2022-11-20T11:30:49;99836.88;;;10.21;100.00
15634;BME280;14654;48.898;8.308;2022-11-20T11:33:21;99833.50;;;10.14;100.00
15634;BME280;14654;48.898;8.308;2022-11-20T11:35:49;99826.72;;;10.09;100.00
15634;BME280;14654;48.898;8.308;2022-11-20T11:38:41;99820.69;;;10.08;100.00
15634;BME280;14654;48.898;8.308;2022-11-20T11:41:16;99822.59;;;9.97;100.00
15634;BME280;14654;48.898;8.308;2022-11-20T11:43:51;99820.81;;;9.99;100.00
15634;BME280;14654;48.898;8.308;2022-11-20T11:46:36;99809.47;;;10.07;100.00
15634;BME280;14654;48.898;8.308;2022-11-20T11:54:15;99801.72;;;10.65;100.00
15634;BME280;14654;48.898;8.308;2022-11-20T11:56:43;99793.75;;;10.76;100.00
15634;BME280;14654;48.898;8.308;2022-11-20T11:59:15;99799.81;;;10.77;100.00
15634;BME280;14654;48.898;8.308;2022-11-20T12:02:20;99796.47;;;10.68;100.00
15634;BME280;14654;48.898;8.308;2022-11-20T12:04:59;99800.03;;;10.64;100.00
15634;BME280;14654;48.898;8.308;2022-11-20T12:10:56;99802.25;;;10.31;100.00
15634;BME280;14654;48.898;8.308;2022-11-20T12:15:50;99809.22;;;10.26;100.00
15634;BME280;14654;48.898;8.308;2022-11-20T12:18:18;99800.44;;;10.36;99.03
15634;BME280;14654;48.898;8.308;2022-11-20T12:23:59;99806.72;;;10.21;99.56
15634;BME280;14654;48.898;8.308;2022-11-20T12:38:13;99804.75;;;9.76;97.90
15634;BME280;14654;48.898;8.308;2022-11-20T12:43:42;99792.97;;;9.55;98.57
15634;BME280;14654;48.898;8.308;2022-11-20T12:49:09;99798.34;;;9.38;99.01
15634;BME280;14654;48.898;8.308;2022-11-20T12:51:44;99788.00;;;9.41;96.99
15634;BME280;14654;48.898;8.308;2022-11-20T12:57:13;99800.13;;;9.33;96.56
15634;BME280;14654;48.898;8.308;2022-11-20T13:07:51;99783.41;;;8.87;96.84
15634;BME280;14654;48.898;8.308;2022-11-20T13:10:51;99779.97;;;8.88;96.90
15634;BME280;14654;48.898;8.308;2022-11-20T13:15:59;99767.69;;;9.10;96.49
15634;BME280;14654;48.898;8.308;2022-11-20T13:18:28;99765.84;;;9.19;95.93
15634;BME280;14654;48.898;8.308;2022-11-20T13:20:56;99762.34;;;9.26;95.96
15634;BME280;14654;48.898;8.308;2022-11-20T13:23:26;99763.16;;;9.29;96.03
15634;BME280;14654;48.898;8.308;2022-11-20T13:26:06;99760.50;;;9.36;95.92
15634;BME280;14654;48.898;8.308;2022-11-20T13:28:38;99753.53;;;9.41;96.11
15634;BME280;14654;48.898;8.308;2022-11-20T13:31:23;99749.16;;;9.49;95.71
15634;BME280;14654;48.898;8.308;2022-11-20T13:33:54;99742.13;;;9.57;95.44
15634;BME280;14654;48.898;8.308;2022-11-20T13:36:26;99748.09;;;9.63;94.46
15634;BME280;14654;48.898;8.308;2022-11-20T13:38:54;99751.50;;;9.66;94.82
15634;BME280;14654;48.898;8.308;2022-11-20T13:41:25;99742.78;;;9.72;94.91
15634;BME280;14654;48.898;8.308;2022-11-20T13:43:59;99741.91;;;9.73;94.71
15634;BME280;14654;48.898;8.308;2022-11-20T13:46:36;99734.16;;;9.73;93.99
15634;BME280;14654;48.898;8.308;2022-11-20T13:49:07;99736.78;;;9.71;93.62
15634;BME280;14654;48.898;8.308;2022-11-20T13:51:43;99731.66;;;9.68;93.62
15634;BME280;14654;48.898;8.308;2022-11-20T14:00:04;99726.22;;;9.87;92.91
15634;BME280;14654;48.898;8.308;2022-11-20T14:02:33;99723.66;;;9.87;92.91
15634;BME280;14654;48.898;8.308;2022-11-20T14:04:59;99729.81;;;9.78;91.66
15634;BME280;14654;48.898;8.308;2022-11-20T14:07:35;99719.66;;;9.66;91.29
15634;BME280;14654;48.898;8.308;2022-11-20T14:10:03;99725.06;;;9.47;90.98
15634;BME280;14654;48.898;8.308;2022-11-20T14:12:31;99710.59;;;9.34;90.30
15634;BME280;14654;48.898;8.308;2022-11-20T14:14:57;99712.41;;;9.25;90.12
15634;BME280;14654;48.898;8.308;2022-11-20T14:17:30;99703.13;;;9.13;89.66
15634;BME280;14654;48.898;8.308;2022-11-20T14:20:12;99695.50;;;9.03;89.77
15634;BME280;14654;48.898;8.308;2022-11-20T14:22:39;99693.91;;;8.91;91.12
15634;BME280;14654;48.898;8.308;2022-11-20T14:27:44;99700.13;;;8.76;91.47
15634;BME280;14654;48.898;8.308;2022-11-20T14:30:16;99691.59;;;8.67;91.73
15634;BME280;14654;48.898;8.308;2022-11-20T14:32:44;99689.13;;;8.58;92.16
15634;BME280;14654;48.898;8.308;2022-11-20T14:35:16;99689.19;;;8.49;92.69